M/V R.j. Cheramie — WDG3635 — position and weather

sailwx.info

Track history (hours):
 
Tides and Currents Weather Stations Pressure Air Temp Water Temp Dewpoint Dewpoint Depression Visibility Wind Speed Wind Dir Waves Ship Positions

M/V R.j. Cheramie

Owner: D&S Marine Service, LLC R.J. Cheramie, Gray, LA. More information available from US FCC via Universal Licensing System and Coast Guard Vessel Documentation Center.

Last reported at 2018-Jun-21 22:26 UTC. Time now 2018-Jun-21 23:50 UTC.
Position N 29°46' W 095°06'.

Length 85 m; draft 2.7 m.

Type: . MMSI: 367528110.

Date/timePositionNaut miles runAvg speedWind from/ knotsBaromVisibWave heightAir tempDewpointWater temp
2018-Jun-21 22:26N 29°46' W 095°06'0 0.2
2018-Jun-21 21:37N 29°46' W 095°06'0 0.0
2018-Jun-21 21:27N 29°46' W 095°06'0 0.0
2018-Jun-21 20:55N 29°46' W 095°06'0 0.0
2018-Jun-21 20:25N 29°46' W 095°06'0 0.0
2018-Jun-21 19:59N 29°46' W 095°06'0 0.0
2018-Jun-21 19:25N 29°46' W 095°06'0 0.4
2018-Jun-21 18:45N 29°46' W 095°06'2 5.9
2018-Jun-21 18:26N 29°45' W 095°04'4 7.1
2018-Jun-21 17:52N 29°42' W 095°01'3 7.6
2018-Jun-21 17:29N 29°40' W 094°59'4 8.6
2018-Jun-21 16:59N 29°36' W 094°57'4 8.7
2018-Jun-21 16:29N 29°33' W 094°54'5 9.0
2018-Jun-21 15:56N 29°28' W 094°51'4 9.0
2018-Jun-21 15:31N 29°25' W 094°49'3 4.6
2018-Jun-21 14:56N 29°22' W 094°50'3 6.6
2018-Jun-21 14:31N 29°22' W 094°53'1 3.0
2018-Jun-21 14:01N 29°22' W 094°55'0 0.0
2018-Jun-21 13:29N 29°22' W 094°55'2 3.2
2018-Jun-21 12:57N 29°23' W 094°53'2 3.8
2018-Jun-21 12:31N 29°23' W 094°51'3 5.9
2018-Jun-21 12:00N 29°22' W 094°48'8 1.5
2018-Jun-21 06:38N 29°27' W 094°41'12 4.6
2018-Jun-21 04:09N 29°32' W 094°29'1 4.8
2018-Jun-21 04:00N 29°32' W 094°29'2 4.1
2018-Jun-21 03:25N 29°34' W 094°26'1 3.3
2018-Jun-21 03:00N 29°34' W 094°25'2 3.3
2018-Jun-21 02:30N 29°36' W 094°24'2 4.0
2018-Jun-21 02:00N 29°36' W 094°22'2 4.5
2018-Jun-21 01:29N 29°37' W 094°20'2 4.7
2018-Jun-21 00:59N 29°39' W 094°17'2 4.9
2018-Jun-21 00:31N 29°40' W 094°15'2 4.9
2018-Jun-21 00:01N 29°41' W 094°12'2 4.7
2018-Jun-20 23:31N 29°41' W 094°10'2 4.7
2018-Jun-20 23:01N 29°43' W 094°07'2 4.7
2018-Jun-20 22:30N 29°44' W 094°05'2 4.7
2018-Jun-20 22:01N 29°46' W 094°03'2 4.6
2018-Jun-20 21:30N 29°47' W 094°01'2 4.4
2018-Jun-20 21:00N 29°49' W 093°60'2 3.5
2018-Jun-20 20:30N 29°49' W 093°58'2 4.9
2018-Jun-20 20:00N 29°52' W 093°56'2 4.5
2018-Jun-20 19:30N 29°53' W 093°55'2 4.9
2018-Jun-20 19:00N 29°55' W 093°53'2 4.7
2018-Jun-20 18:30N 29°57' W 093°52'2 3.8
2018-Jun-20 18:00N 29°59' W 093°50'2 4.4
2018-Jun-20 17:30N 29°59' W 093°47'2 3.7
2018-Jun-20 17:00N 30°01' W 093°46'2 3.2
2018-Jun-20 16:30N 30°02' W 093°44'2 4.3
2018-Jun-20 16:00N 30°03' W 093°43'2 4.5
2018-Jun-20 15:30N 30°04' W 093°40'2 4.6
2018-Jun-20 15:00N 30°04' W 093°38'2 3.9
2018-Jun-20 14:28N 30°04' W 093°35'2 4.0
2018-Jun-20 14:00N 30°04' W 093°33'2 3.9
2018-Jun-20 13:30N 30°04' W 093°31'2 3.8
2018-Jun-20 13:00N 30°04' W 093°29'2 3.3
2018-Jun-20 12:30N 30°04' W 093°27'2 4.3
2018-Jun-20 12:00N 30°04' W 093°24'2 3.9
2018-Jun-20 11:30N 30°04' W 093°22'1 1.4
2018-Jun-20 11:00N 30°04' W 093°21'2 3.4
2018-Jun-20 10:30N 30°05' W 093°20'2 3.7
2018-Jun-20 10:00N 30°06' W 093°18'1 2.0
2018-Jun-20 09:30N 30°05' W 093°17'1 1.3
2018-Jun-20 09:00N 30°05' W 093°17'0 0.7
2018-Jun-20 08:30N 30°04' W 093°16'0 0.1
2018-Jun-20 07:58N 30°04' W 093°16'0 0.0
2018-Jun-20 07:28N 30°04' W 093°16'0 0.0
2018-Jun-20 06:58N 30°04' W 093°16'0 0.0
2018-Jun-20 06:28N 30°04' W 093°16'0 0.0
2018-Jun-20 05:58N 30°04' W 093°16'0 0.0
2018-Jun-20 05:28N 30°04' W 093°16'0 0.0
2018-Jun-20 04:58N 30°04' W 093°16'0 0.0
2018-Jun-20 04:28N 30°04' W 093°16'0 0.0
2018-Jun-20 03:58N 30°04' W 093°16'0 0.0
2018-Jun-20 03:28N 30°04' W 093°16'0 0.0
2018-Jun-20 02:58N 30°04' W 093°16'0 0.0
2018-Jun-20 02:28N 30°04' W 093°16'0 0.0
2018-Jun-20 01:58N 30°04' W 093°16'0 0.0
2018-Jun-20 01:28N 30°04' W 093°16'0 0.0
2018-Jun-20 00:58N 30°04' W 093°16'0 0.0
2018-Jun-20 00:28N 30°04' W 093°16'0 0.0
2018-Jun-19 23:58N 30°04' W 093°16'0 0.0
2018-Jun-19 23:28N 30°04' W 093°16'0 0.0
2018-Jun-19 22:58N 30°04' W 093°16'0 0.0
2018-Jun-19 22:28N 30°04' W 093°16'0 0.0
2018-Jun-19 21:58N 30°04' W 093°16'0 0.0
2018-Jun-19 21:28N 30°04' W 093°16'0 0.0
2018-Jun-19 20:58N 30°04' W 093°16'0 0.0
2018-Jun-19 20:28N 30°04' W 093°16'0 0.0
2018-Jun-19 19:58N 30°04' W 093°16'0 0.0
2018-Jun-19 19:28N 30°04' W 093°16'0 0.0
2018-Jun-19 18:58N 30°04' W 093°16'0 0.0
2018-Jun-19 18:28N 30°04' W 093°16'0 0.0
2018-Jun-19 17:58N 30°04' W 093°16'0 0.0
2018-Jun-19 17:28N 30°04' W 093°16'0 0.0
2018-Jun-19 16:58N 30°04' W 093°16'0 0.0
2018-Jun-19 16:28N 30°04' W 093°16'0 0.0
2018-Jun-19 15:58N 30°04' W 093°16'0 0.0
2018-Jun-19 15:31N 30°04' W 093°16'0 0.0
2018-Jun-19 15:00N 30°04' W 093°16'0 0.0
2018-Jun-19 14:30N 30°04' W 093°16'0 0.0
2018-Jun-19 14:00N 30°04' W 093°16'0 0.0
2018-Jun-19 13:30N 30°04' W 093°16'0 0.0
2018-Jun-19 12:55N 30°04' W 093°16'0 0.0
2018-Jun-19 12:30N 30°04' W 093°16'1 2.8
2018-Jun-19 12:01N 30°03' W 093°16'1 2.8
2018-Jun-19 11:30N 30°02' W 093°15'2 3.3
2018-Jun-19 11:00N 30°01' W 093°14'1 1.9
2018-Jun-19 10:31N 29°60' W 093°13'0 0.1
2018-Jun-19 10:01N 29°60' W 093°13'1 2.9
2018-Jun-19 09:31N 29°59' W 093°12'2 4.1
2018-Jun-19 09:00N 29°57' W 093°11'43 3.7
2018-Jun-18 21:34N 29°51' W 092°22'0 4.1
2018-Jun-18 21:29N 29°51' W 092°21'2 4.0
2018-Jun-18 21:00N 29°50' W 092°19'2 3.5
2018-Jun-18 20:30N 29°49' W 092°18'2 3.6
2018-Jun-18 20:00N 29°48' W 092°16'2 4.0
2018-Jun-18 19:30N 29°48' W 092°14'1 2.7
2018-Jun-18 19:00N 29°47' W 092°12'1 2.1
2018-Jun-18 18:31N 29°47' W 092°11'0 0.0
2018-Jun-18 18:00N 29°47' W 092°11'0 0.0
2018-Jun-18 17:31N 29°47' W 092°11'0 0.0
2018-Jun-18 17:01N 29°47' W 092°11'0 0.4
2018-Jun-18 16:30N 29°47' W 092°11'0 0.1
2018-Jun-18 16:00N 29°47' W 092°11'0 0.0
2018-Jun-18 15:30N 29°47' W 092°11'0 0.1
2018-Jun-18 15:00N 29°47' W 092°11'0 0.0
2018-Jun-18 14:31N 29°47' W 092°11'0 0.0
2018-Jun-18 14:00N 29°47' W 092°11'0 0.4
2018-Jun-18 13:30N 29°47' W 092°11'0 0.0
2018-Jun-18 13:00N 29°47' W 092°11'0 0.0
2018-Jun-18 12:31N 29°47' W 092°11'0 0.4
2018-Jun-18 12:00N 29°46' W 092°10'2 3.2
2018-Jun-18 11:31N 29°47' W 092°09'3 5.3
2018-Jun-18 11:00N 29°48' W 092°06'2 5.0
2018-Jun-18 10:31N 29°49' W 092°03'2 4.3
2018-Jun-18 10:00N 29°49' W 092°01'2 4.2
2018-Jun-18 09:29N 29°50' W 091°58'2 4.3
2018-Jun-18 09:00N 29°51' W 091°56'6 3.6
2018-Jun-18 07:27N 29°50' W 091°50'  
2018-Jun-15 04:35N 29°51' W 091°57'1 5.4
2018-Jun-15 04:29N 29°50' W 091°57'3 5.5
2018-Jun-15 04:00N 29°50' W 092°00'3 5.6
2018-Jun-15 03:31N 29°49' W 092°03'3 5.2
2018-Jun-15 03:01N 29°48' W 092°06'2 4.9
2018-Jun-15 02:30N 29°47' W 092°09'2 4.1
2018-Jun-15 02:01N 29°47' W 092°11'1 2.7
2018-Jun-15 01:30N 29°47' W 092°13'2 3.7
2018-Jun-15 01:00N 29°48' W 092°14'3 5.0
2018-Jun-15 00:30N 29°49' W 092°17'2 4.5
2018-Jun-15 00:00N 29°50' W 092°19'2 4.7
2018-Jun-14 23:31N 29°51' W 092°22'1 2.1
2018-Jun-14 22:51N 29°52' W 092°23'35 4.4
2018-Jun-14 14:56N 29°56' W 093°03'2 4.1
2018-Jun-14 14:27N 29°56' W 093°05'2 4.6
2018-Jun-14 14:00N 29°56' W 093°08'2 4.5
2018-Jun-14 13:30N 29°57' W 093°10'2 4.3
2018-Jun-14 13:00N 29°58' W 093°12'2 3.3
2018-Jun-14 12:30N 29°60' W 093°13'1 2.5
2018-Jun-14 12:01N 30°01' W 093°14'0 0.1
2018-Jun-14 11:31N 30°01' W 093°14'1 1.6
2018-Jun-14 11:00N 30°01' W 093°14'2 4.0
2018-Jun-14 10:30N 30°03' W 093°16'2 3.6
2018-Jun-14 10:00N 30°04' W 093°16'1 2.8
2018-Jun-14 09:31N 30°05' W 093°18'0 0.7
2018-Jun-14 09:00N 30°05' W 093°18'0 0.9
2018-Jun-14 08:30N 30°06' W 093°18'0 0.1
2018-Jun-14 08:01N 30°06' W 093°18'0 0.0
2018-Jun-14 07:30N 30°06' W 093°18'0 0.0
2018-Jun-14 07:00N 30°06' W 093°18'0 0.0
2018-Jun-14 06:31N 30°06' W 093°18'0 0.0
2018-Jun-14 06:00N 30°06' W 093°18'0 0.0
2018-Jun-14 05:30N 30°06' W 093°18'0 0.0
2018-Jun-14 05:01N 30°06' W 093°18'0 0.0
2018-Jun-14 04:30N 30°06' W 093°18'0 0.0
2018-Jun-14 04:01N 30°06' W 093°18'0 0.1
2018-Jun-14 03:30N 30°06' W 093°18'0 0.0
2018-Jun-14 03:01N 30°06' W 093°18'0 0.0
2018-Jun-14 02:30N 30°06' W 093°18'0 0.1
2018-Jun-14 02:00N 30°06' W 093°18'0 0.1
2018-Jun-14 01:30N 30°06' W 093°18'0 0.0
2018-Jun-14 01:00N 30°06' W 093°18'0 0.2
2018-Jun-14 00:30N 30°06' W 093°18'0 0.1
2018-Jun-14 00:01N 30°06' W 093°18'0 0.0
2018-Jun-13 23:31N 30°06' W 093°18'0 0.0
2018-Jun-13 23:01N 30°06' W 093°18'0 0.0
2018-Jun-13 22:31N 30°06' W 093°18'0 0.0
2018-Jun-13 22:00N 30°06' W 093°18'0 0.0
2018-Jun-13 21:29N 30°06' W 093°18'0 0.0
2018-Jun-13 21:00N 30°06' W 093°18'0 0.0
2018-Jun-13 20:30N 30°06' W 093°18'0 0.0
2018-Jun-13 19:58N 30°06' W 093°18'0 0.0
2018-Jun-13 19:30N 30°06' W 093°18'0 0.0
2018-Jun-13 19:00N 30°06' W 093°18'0 0.0
2018-Jun-13 18:31N 30°06' W 093°18'0 0.2
2018-Jun-13 18:00N 30°06' W 093°18'0 0.1
2018-Jun-13 17:31N 30°06' W 093°18'0 0.2
2018-Jun-13 17:00N 30°06' W 093°18'0 0.0
2018-Jun-13 16:30N 30°06' W 093°18'0 0.0
2018-Jun-13 16:00N 30°06' W 093°18'0 0.0
2018-Jun-13 15:31N 30°06' W 093°18'0 0.0
2018-Jun-13 15:00N 30°06' W 093°18'0 0.1
2018-Jun-13 14:30N 30°06' W 093°18'1 2.3
2018-Jun-13 14:00N 30°05' W 093°20'2 4.3
2018-Jun-13 13:30N 30°04' W 093°21'1 1.8
2018-Jun-13 13:00N 30°04' W 093°22'1 1.2
2018-Jun-13 12:29N 30°04' W 093°21'0 0.3
2018-Jun-13 12:00N 30°04' W 093°22'1 1.9
2018-Jun-13 11:30N 30°04' W 093°23'2 4.0
2018-Jun-13 11:00N 30°04' W 093°25'3 5.4
2018-Jun-13 10:30N 30°04' W 093°28'3 6.0
2018-Jun-13 10:00N 30°04' W 093°32'4 6.1
2018-Jun-13 09:25N 30°04' W 093°36'3 6.3
2018-Jun-13 08:52N 30°04' W 093°40'2 6.6
2018-Jun-13 08:30N 30°03' W 093°42'4 7.1
2018-Jun-13 08:00N 30°01' W 093°45'4 7.6
2018-Jun-13 07:30N 29°59' W 093°49'4 7.1
2018-Jun-13 07:00N 29°56' W 093°52'4 7.6
2018-Jun-13 06:30N 29°53' W 093°55'3 6.9
2018-Jun-13 06:00N 29°51' W 093°57'3 5.1
2018-Jun-13 05:30N 29°49' W 093°59'3 6.5
2018-Jun-13 05:00N 29°47' W 094°02'3 6.7
2018-Jun-13 04:30N 29°45' W 094°05'3 6.7
2018-Jun-13 04:00N 29°42' W 094°08'3 6.2
2018-Jun-13 03:30N 29°41' W 094°11'3 6.4
2018-Jun-13 03:00N 29°40' W 094°14'3 6.1
2018-Jun-13 02:30N 29°38' W 094°18'3 6.0
2018-Jun-13 02:00N 29°37' W 094°21'3 5.6
2018-Jun-13 01:30N 29°36' W 094°24'2 3.6
2018-Jun-13 00:56N 29°34' W 094°25'3 5.5
2018-Jun-13 00:27N 29°33' W 094°28'20 5.4
2018-Jun-12 20:49N 29°23' W 094°47'19 7.8
2018-Jun-12 18:23N 29°39' W 094°58'  
Track history (hours):
 
Tides and Currents Weather Stations Pressure Air Temp Water Temp Dewpoint Dewpoint Depression Visibility Wind Speed Wind Dir Waves Ship Positions

M/V R.j. Cheramie

Owner: D&S Marine Service, LLC R.J. Cheramie, Gray, LA. More information available from US FCC via Universal Licensing System and Coast Guard Vessel Documentation Center.

Last reported at 2018-Jun-21 22:26 UTC. Time now 2018-Jun-21 23:50 UTC.
Position N 29°46' W 095°06'.

Length 85 m; draft 2.7 m.

Type: . MMSI: 367528110.

Date/timePositionNaut miles runAvg speedWind from/ knotsBaromVisibWave heightAir tempDewpointWater temp
2018-Jun-21 22:26N 29°46' W 095°06'0 0.2
2018-Jun-21 21:37N 29°46' W 095°06'0 0.0
2018-Jun-21 21:27N 29°46' W 095°06'0 0.0
2018-Jun-21 20:55N 29°46' W 095°06'0 0.0
2018-Jun-21 20:25N 29°46' W 095°06'0 0.0
2018-Jun-21 19:59N 29°46' W 095°06'0 0.0
2018-Jun-21 19:25N 29°46' W 095°06'0 0.4
2018-Jun-21 18:45N 29°46' W 095°06'2 5.9
2018-Jun-21 18:26N 29°45' W 095°04'4 7.1
2018-Jun-21 17:52N 29°42' W 095°01'3 7.6
2018-Jun-21 17:29N 29°40' W 094°59'4 8.6
2018-Jun-21 16:59N 29°36' W 094°57'4 8.7
2018-Jun-21 16:29N 29°33' W 094°54'5 9.0
2018-Jun-21 15:56N 29°28' W 094°51'4 9.0
2018-Jun-21 15:31N 29°25' W 094°49'3 4.6
2018-Jun-21 14:56N 29°22' W 094°50'3 6.6
2018-Jun-21 14:31N 29°22' W 094°53'1 3.0
2018-Jun-21 14:01N 29°22' W 094°55'0 0.0
2018-Jun-21 13:29N 29°22' W 094°55'2 3.2
2018-Jun-21 12:57N 29°23' W 094°53'2 3.8
2018-Jun-21 12:31N 29°23' W 094°51'3 5.9
2018-Jun-21 12:00N 29°22' W 094°48'8 1.5
2018-Jun-21 06:38N 29°27' W 094°41'12 4.6
2018-Jun-21 04:09N 29°32' W 094°29'1 4.8
2018-Jun-21 04:00N 29°32' W 094°29'2 4.1
2018-Jun-21 03:25N 29°34' W 094°26'1 3.3
2018-Jun-21 03:00N 29°34' W 094°25'2 3.3
2018-Jun-21 02:30N 29°36' W 094°24'2 4.0
2018-Jun-21 02:00N 29°36' W 094°22'2 4.5
2018-Jun-21 01:29N 29°37' W 094°20'2 4.7
2018-Jun-21 00:59N 29°39' W 094°17'2 4.9
2018-Jun-21 00:31N 29°40' W 094°15'2 4.9
2018-Jun-21 00:01N 29°41' W 094°12'2 4.7
2018-Jun-20 23:31N 29°41' W 094°10'2 4.7
2018-Jun-20 23:01N 29°43' W 094°07'2 4.7
2018-Jun-20 22:30N 29°44' W 094°05'2 4.7
2018-Jun-20 22:01N 29°46' W 094°03'2 4.6
2018-Jun-20 21:30N 29°47' W 094°01'2 4.4
2018-Jun-20 21:00N 29°49' W 093°60'2 3.5
2018-Jun-20 20:30N 29°49' W 093°58'2 4.9
2018-Jun-20 20:00N 29°52' W 093°56'2 4.5
2018-Jun-20 19:30N 29°53' W 093°55'2 4.9
2018-Jun-20 19:00N 29°55' W 093°53'2 4.7
2018-Jun-20 18:30N 29°57' W 093°52'2 3.8
2018-Jun-20 18:00N 29°59' W 093°50'2 4.4
2018-Jun-20 17:30N 29°59' W 093°47'2 3.7
2018-Jun-20 17:00N 30°01' W 093°46'2 3.2
2018-Jun-20 16:30N 30°02' W 093°44'2 4.3
2018-Jun-20 16:00N 30°03' W 093°43'2 4.5
2018-Jun-20 15:30N 30°04' W 093°40'2 4.6
2018-Jun-20 15:00N 30°04' W 093°38'2 3.9
2018-Jun-20 14:28N 30°04' W 093°35'2 4.0
2018-Jun-20 14:00N 30°04' W 093°33'2 3.9
2018-Jun-20 13:30N 30°04' W 093°31'2 3.8
2018-Jun-20 13:00N 30°04' W 093°29'2 3.3
2018-Jun-20 12:30N 30°04' W 093°27'2 4.3
2018-Jun-20 12:00N 30°04' W 093°24'2 3.9
2018-Jun-20 11:30N 30°04' W 093°22'1 1.4
2018-Jun-20 11:00N 30°04' W 093°21'2 3.4
2018-Jun-20 10:30N 30°05' W 093°20'2 3.7
2018-Jun-20 10:00N 30°06' W 093°18'1 2.0
2018-Jun-20 09:30N 30°05' W 093°17'1 1.3
2018-Jun-20 09:00N 30°05' W 093°17'0 0.7
2018-Jun-20 08:30N 30°04' W 093°16'0 0.1
2018-Jun-20 07:58N 30°04' W 093°16'0 0.0
2018-Jun-20 07:28N 30°04' W 093°16'0 0.0
2018-Jun-20 06:58N 30°04' W 093°16'0 0.0
2018-Jun-20 06:28N 30°04' W 093°16'0 0.0
2018-Jun-20 05:58N 30°04' W 093°16'0 0.0
2018-Jun-20 05:28N 30°04' W 093°16'0 0.0
2018-Jun-20 04:58N 30°04' W 093°16'0 0.0
2018-Jun-20 04:28N 30°04' W 093°16'0 0.0
2018-Jun-20 03:58N 30°04' W 093°16'0 0.0
2018-Jun-20 03:28N 30°04' W 093°16'0 0.0
2018-Jun-20 02:58N 30°04' W 093°16'0 0.0
2018-Jun-20 02:28N 30°04' W 093°16'0 0.0
2018-Jun-20 01:58N 30°04' W 093°16'0 0.0
2018-Jun-20 01:28N 30°04' W 093°16'0 0.0
2018-Jun-20 00:58N 30°04' W 093°16'0 0.0
2018-Jun-20 00:28N 30°04' W 093°16'0 0.0
2018-Jun-19 23:58N 30°04' W 093°16'0 0.0
2018-Jun-19 23:28N 30°04' W 093°16'0 0.0
2018-Jun-19 22:58N 30°04' W 093°16'0 0.0
2018-Jun-19 22:28N 30°04' W 093°16'0 0.0
2018-Jun-19 21:58N 30°04' W 093°16'0 0.0
2018-Jun-19 21:28N 30°04' W 093°16'0 0.0
2018-Jun-19 20:58N 30°04' W 093°16'0 0.0
2018-Jun-19 20:28N 30°04' W 093°16'0 0.0
2018-Jun-19 19:58N 30°04' W 093°16'0 0.0
2018-Jun-19 19:28N 30°04' W 093°16'0 0.0
2018-Jun-19 18:58N 30°04' W 093°16'0 0.0
2018-Jun-19 18:28N 30°04' W 093°16'0 0.0
2018-Jun-19 17:58N 30°04' W 093°16'0 0.0
2018-Jun-19 17:28N 30°04' W 093°16'0 0.0
2018-Jun-19 16:58N 30°04' W 093°16'0 0.0
2018-Jun-19 16:28N 30°04' W 093°16'0 0.0
2018-Jun-19 15:58N 30°04' W 093°16'0 0.0
2018-Jun-19 15:31N 30°04' W 093°16'0 0.0
2018-Jun-19 15:00N 30°04' W 093°16'0 0.0
2018-Jun-19 14:30N 30°04' W 093°16'0 0.0
2018-Jun-19 14:00N 30°04' W 093°16'0 0.0
2018-Jun-19 13:30N 30°04' W 093°16'0 0.0
2018-Jun-19 12:55N 30°04' W 093°16'0 0.0
2018-Jun-19 12:30N 30°04' W 093°16'1 2.8
2018-Jun-19 12:01N 30°03' W 093°16'1 2.8
2018-Jun-19 11:30N 30°02' W 093°15'2 3.3
2018-Jun-19 11:00N 30°01' W 093°14'1 1.9
2018-Jun-19 10:31N 29°60' W 093°13'0 0.1
2018-Jun-19 10:01N 29°60' W 093°13'1 2.9
2018-Jun-19 09:31N 29°59' W 093°12'2 4.1
2018-Jun-19 09:00N 29°57' W 093°11'43 3.7
2018-Jun-18 21:34N 29°51' W 092°22'0 4.1
2018-Jun-18 21:29N 29°51' W 092°21'2 4.0
2018-Jun-18 21:00N 29°50' W 092°19'2 3.5
2018-Jun-18 20:30N 29°49' W 092°18'2 3.6
2018-Jun-18 20:00N 29°48' W 092°16'2 4.0
2018-Jun-18 19:30N 29°48' W 092°14'1 2.7
2018-Jun-18 19:00N 29°47' W 092°12'1 2.1
2018-Jun-18 18:31N 29°47' W 092°11'0 0.0
2018-Jun-18 18:00N 29°47' W 092°11'0 0.0
2018-Jun-18 17:31N 29°47' W 092°11'0 0.0
2018-Jun-18 17:01N 29°47' W 092°11'0 0.4
2018-Jun-18 16:30N 29°47' W 092°11'0 0.1
2018-Jun-18 16:00N 29°47' W 092°11'0 0.0
2018-Jun-18 15:30N 29°47' W 092°11'0 0.1
2018-Jun-18 15:00N 29°47' W 092°11'0 0.0
2018-Jun-18 14:31N 29°47' W 092°11'0 0.0
2018-Jun-18 14:00N 29°47' W 092°11'0 0.4
2018-Jun-18 13:30N 29°47' W 092°11'0 0.0
2018-Jun-18 13:00N 29°47' W 092°11'0 0.0
2018-Jun-18 12:31N 29°47' W 092°11'0 0.4
2018-Jun-18 12:00N 29°46' W 092°10'2 3.2
2018-Jun-18 11:31N 29°47' W 092°09'3 5.3
2018-Jun-18 11:00N 29°48' W 092°06'2 5.0
2018-Jun-18 10:31N 29°49' W 092°03'2 4.3
2018-Jun-18 10:00N 29°49' W 092°01'2 4.2
2018-Jun-18 09:29N 29°50' W 091°58'2 4.3
2018-Jun-18 09:00N 29°51' W 091°56'6 3.6
2018-Jun-18 07:27N 29°50' W 091°50'  
2018-Jun-15 04:35N 29°51' W 091°57'1 5.4
2018-Jun-15 04:29N 29°50' W 091°57'3 5.5
2018-Jun-15 04:00N 29°50' W 092°00'3 5.6
2018-Jun-15 03:31N 29°49' W 092°03'3 5.2
2018-Jun-15 03:01N 29°48' W 092°06'2 4.9
2018-Jun-15 02:30N 29°47' W 092°09'2 4.1
2018-Jun-15 02:01N 29°47' W 092°11'1 2.7
2018-Jun-15 01:30N 29°47' W 092°13'2 3.7
2018-Jun-15 01:00N 29°48' W 092°14'3 5.0
2018-Jun-15 00:30N 29°49' W 092°17'2 4.5
2018-Jun-15 00:00N 29°50' W 092°19'2 4.7
2018-Jun-14 23:31N 29°51' W 092°22'1 2.1
2018-Jun-14 22:51N 29°52' W 092°23'35 4.4
2018-Jun-14 14:56N 29°56' W 093°03'2 4.1
2018-Jun-14 14:27N 29°56' W 093°05'2 4.6
2018-Jun-14 14:00N 29°56' W 093°08'2 4.5
2018-Jun-14 13:30N 29°57' W 093°10'2 4.3
2018-Jun-14 13:00N 29°58' W 093°12'2 3.3
2018-Jun-14 12:30N 29°60' W 093°13'1 2.5
2018-Jun-14 12:01N 30°01' W 093°14'0 0.1
2018-Jun-14 11:31N 30°01' W 093°14'1 1.6
2018-Jun-14 11:00N 30°01' W 093°14'2 4.0
2018-Jun-14 10:30N 30°03' W 093°16'2 3.6
2018-Jun-14 10:00N 30°04' W 093°16'1 2.8
2018-Jun-14 09:31N 30°05' W 093°18'0 0.7
2018-Jun-14 09:00N 30°05' W 093°18'0 0.9
2018-Jun-14 08:30N 30°06' W 093°18'0 0.1
2018-Jun-14 08:01N 30°06' W 093°18'0 0.0
2018-Jun-14 07:30N 30°06' W 093°18'0 0.0
2018-Jun-14 07:00N 30°06' W 093°18'0 0.0
2018-Jun-14 06:31N 30°06' W 093°18'0 0.0
2018-Jun-14 06:00N 30°06' W 093°18'0 0.0
2018-Jun-14 05:30N 30°06' W 093°18'0 0.0
2018-Jun-14 05:01N 30°06' W 093°18'0 0.0
2018-Jun-14 04:30N 30°06' W 093°18'0 0.0
2018-Jun-14 04:01N 30°06' W 093°18'0 0.1
2018-Jun-14 03:30N 30°06' W 093°18'0 0.0
2018-Jun-14 03:01N 30°06' W 093°18'0 0.0
2018-Jun-14 02:30N 30°06' W 093°18'0 0.1
2018-Jun-14 02:00N 30°06' W 093°18'0 0.1
2018-Jun-14 01:30N 30°06' W 093°18'0 0.0
2018-Jun-14 01:00N 30°06' W 093°18'0 0.2
2018-Jun-14 00:30N 30°06' W 093°18'0 0.1
2018-Jun-14 00:01N 30°06' W 093°18'0 0.0
2018-Jun-13 23:31N 30°06' W 093°18'0 0.0
2018-Jun-13 23:01N 30°06' W 093°18'0 0.0
2018-Jun-13 22:31N 30°06' W 093°18'0 0.0
2018-Jun-13 22:00N 30°06' W 093°18'0 0.0
2018-Jun-13 21:29N 30°06' W 093°18'0 0.0
2018-Jun-13 21:00N 30°06' W 093°18'0 0.0
2018-Jun-13 20:30N 30°06' W 093°18'0 0.0
2018-Jun-13 19:58N 30°06' W 093°18'0 0.0
2018-Jun-13 19:30N 30°06' W 093°18'0 0.0
2018-Jun-13 19:00N 30°06' W 093°18'0 0.0
2018-Jun-13 18:31N 30°06' W 093°18'0 0.2
2018-Jun-13 18:00N 30°06' W 093°18'0 0.1
2018-Jun-13 17:31N 30°06' W 093°18'0 0.2
2018-Jun-13 17:00N 30°06' W 093°18'0 0.0
2018-Jun-13 16:30N 30°06' W 093°18'0 0.0
2018-Jun-13 16:00N 30°06' W 093°18'0 0.0
2018-Jun-13 15:31N 30°06' W 093°18'0 0.0
2018-Jun-13 15:00N 30°06' W 093°18'0 0.1
2018-Jun-13 14:30N 30°06' W 093°18'1 2.3
2018-Jun-13 14:00N 30°05' W 093°20'2 4.3
2018-Jun-13 13:30N 30°04' W 093°21'1 1.8
2018-Jun-13 13:00N 30°04' W 093°22'1 1.2
2018-Jun-13 12:29N 30°04' W 093°21'0 0.3
2018-Jun-13 12:00N 30°04' W 093°22'1 1.9
2018-Jun-13 11:30N 30°04' W 093°23'2 4.0
2018-Jun-13 11:00N 30°04' W 093°25'3 5.4
2018-Jun-13 10:30N 30°04' W 093°28'3 6.0
2018-Jun-13 10:00N 30°04' W 093°32'4 6.1
2018-Jun-13 09:25N 30°04' W 093°36'3 6.3
2018-Jun-13 08:52N 30°04' W 093°40'2 6.6
2018-Jun-13 08:30N 30°03' W 093°42'4 7.1
2018-Jun-13 08:00N 30°01' W 093°45'4 7.6
2018-Jun-13 07:30N 29°59' W 093°49'4 7.1
2018-Jun-13 07:00N 29°56' W 093°52'4 7.6
2018-Jun-13 06:30N 29°53' W 093°55'3 6.9
2018-Jun-13 06:00N 29°51' W 093°57'3 5.1
2018-Jun-13 05:30N 29°49' W 093°59'3 6.5
2018-Jun-13 05:00N 29°47' W 094°02'3 6.7
2018-Jun-13 04:30N 29°45' W 094°05'3 6.7
2018-Jun-13 04:00N 29°42' W 094°08'3 6.2
2018-Jun-13 03:30N 29°41' W 094°11'3 6.4
2018-Jun-13 03:00N 29°40' W 094°14'3 6.1
2018-Jun-13 02:30N 29°38' W 094°18'3 6.0
2018-Jun-13 02:00N 29°37' W 094°21'3 5.6
2018-Jun-13 01:30N 29°36' W 094°24'2 3.6
2018-Jun-13 00:56N 29°34' W 094°25'3 5.5
2018-Jun-13 00:27N 29°33' W 094°28'20 5.4
2018-Jun-12 20:49N 29°23' W 094°47'19 7.8
2018-Jun-12 18:23N 29°39' W 094°58'  

Dump ship's entire track history